createdAt,value
2022-10-17T00:00:40.438Z,5.26
2022-10-17T00:02:13.605Z,5.24
2022-10-17T00:03:46.957Z,5.24
2022-10-17T00:05:19.162Z,5.21
2022-10-17T00:06:52.296Z,5.21
2022-10-17T00:08:25.618Z,5.24
2022-10-17T00:09:58.134Z,5.24
2022-10-17T00:11:31.335Z,5.19
2022-10-17T00:13:03.757Z,5.14
2022-10-17T00:14:37.542Z,5.01
2022-10-17T00:16:12.773Z,5.03
2022-10-17T00:17:46.206Z,4.98
2022-10-17T00:19:19.335Z,4.93
2022-10-17T00:20:53.475Z,4.91
2022-10-17T00:22:26.992Z,4.90
2022-10-17T00:24:01.309Z,4.89
2022-10-17T00:25:34.481Z,4.89
2022-10-17T00:27:07.936Z,4.88
2022-10-17T00:28:41.293Z,4.82
2022-10-17T00:30:17.999Z,4.84
2022-10-17T00:31:56.222Z,4.84
2022-10-17T00:33:30.899Z,4.80
2022-10-17T00:35:04.996Z,4.76
2022-10-17T00:36:38.193Z,4.71
2022-10-17T00:38:11.307Z,4.64
2022-10-17T00:39:44.539Z,4.58
2022-10-17T00:41:20.636Z,4.54
2022-10-17T00:42:53.884Z,4.57
2022-10-17T00:45:12.809Z,4.61
2022-10-17T00:46:48.634Z,4.60
2022-10-17T00:48:25.130Z,4.55
2022-10-17T00:49:58.730Z,4.58
2022-10-17T00:51:39.928Z,4.61
2022-10-17T00:53:13.494Z,4.64
2022-10-17T00:54:48.454Z,4.68
2022-10-17T00:56:22.499Z,4.70
2022-10-17T00:57:55.766Z,4.70
2022-10-17T00:59:30.893Z,4.74
2022-10-17T01:01:04.947Z,4.74
2022-10-17T01:02:38.434Z,4.73
2022-10-17T01:04:13.184Z,4.74
2022-10-17T01:05:47.538Z,4.72
2022-10-17T01:07:20.725Z,4.69
2022-10-17T01:08:54.250Z,4.64
2022-10-17T01:10:34.329Z,4.57
2022-10-17T01:12:15.261Z,4.55
2022-10-17T01:13:53.835Z,4.51
2022-10-17T01:15:41.210Z,4.39
2022-10-17T01:17:26.606Z,4.32
2022-10-17T01:19:08.661Z,4.33
2022-10-17T01:21:12.841Z,4.26
2022-10-17T01:22:53.426Z,4.25
2022-10-17T01:24:50.285Z,4.25
2022-10-17T01:26:32.955Z,4.27
2022-10-17T01:28:20.792Z,4.28
2022-10-17T01:30:41.513Z,4.29
2022-10-17T01:32:19.361Z,4.32
2022-10-17T01:34:01.978Z,4.29
2022-10-17T01:35:41.152Z,4.29
2022-10-17T01:37:20.170Z,4.28
2022-10-17T01:38:57.895Z,4.25
2022-10-17T01:40:38.875Z,4.28
2022-10-17T01:42:18.519Z,4.21
2022-10-17T01:43:59.491Z,4.21
2022-10-17T01:45:39.053Z,4.23
2022-10-17T01:47:18.840Z,4.25
2022-10-17T01:48:53.950Z,4.24
2022-10-17T01:50:32.765Z,4.24
2022-10-17T01:52:11.658Z,4.20
2022-10-17T01:53:51.273Z,4.20
2022-10-17T01:55:29.848Z,4.15
2022-10-17T01:57:08.692Z,4.16
2022-10-17T01:58:48.552Z,4.07
2022-10-17T02:00:24.975Z,4.05
2022-10-17T02:02:00.522Z,3.99
2022-10-17T02:03:36.605Z,4.00
2022-10-17T02:05:11.214Z,3.93
2022-10-17T02:06:44.628Z,3.98
2022-10-17T02:08:28.395Z,4.02
2022-10-17T02:10:04.005Z,4.06
2022-10-17T02:11:37.221Z,3.99
2022-10-17T02:13:21.362Z,3.92
2022-10-17T02:15:09.421Z,3.90
2022-10-17T02:16:52.849Z,3.75
2022-10-17T02:18:48.613Z,3.68
2022-10-17T02:20:26.950Z,3.55
2022-10-17T02:22:11.215Z,3.48
2022-10-17T02:23:53.815Z,3.48
2022-10-17T02:25:38.000Z,3.44
2022-10-17T02:27:15.059Z,3.41
2022-10-17T02:28:55.740Z,3.39
2022-10-17T02:30:36.113Z,3.40
2022-10-17T02:32:17.388Z,3.47
2022-10-17T02:33:56.998Z,3.39
2022-10-17T02:35:34.124Z,3.34
2022-10-17T02:37:09.795Z,3.37
2022-10-17T02:38:44.696Z,3.44
2022-10-17T02:40:23.062Z,3.44
2022-10-17T02:42:02.943Z,3.50
2022-10-17T02:43:38.604Z,3.53
2022-10-17T02:45:12.213Z,3.52
2022-10-17T02:46:48.583Z,3.48
2022-10-17T02:48:29.271Z,3.48
2022-10-17T02:50:04.165Z,3.51
2022-10-17T02:51:45.383Z,3.52
2022-10-17T02:53:25.690Z,3.47
2022-10-17T02:55:03.891Z,3.49
2022-10-17T02:56:42.546Z,3.48
2022-10-17T02:58:22.006Z,3.47
2022-10-17T02:59:57.078Z,3.34
2022-10-17T03:01:31.671Z,3.45
2022-10-17T03:03:20.580Z,3.42
2022-10-17T03:04:53.831Z,3.45
2022-10-17T03:06:29.080Z,3.48
2022-10-17T03:08:02.254Z,3.46
2022-10-17T03:09:35.784Z,3.40
2022-10-17T03:11:09.985Z,3.37
2022-10-17T03:12:43.276Z,3.34
2022-10-17T03:14:16.942Z,3.24
2022-10-17T03:15:50.346Z,3.28
2022-10-17T03:17:23.605Z,3.28
2022-10-17T03:18:57.044Z,3.28
2022-10-17T03:20:30.190Z,3.26
2022-10-17T03:22:05.014Z,3.25
2022-10-17T03:23:40.461Z,3.21
2022-10-17T03:25:13.778Z,3.20
2022-10-17T03:28:25.791Z,3.21
2022-10-17T03:29:59.206Z,3.28
2022-10-17T03:31:32.662Z,3.26
2022-10-17T03:33:06.630Z,3.27
2022-10-17T03:34:39.939Z,3.30
2022-10-17T03:36:15.967Z,3.29
2022-10-17T03:37:52.323Z,3.28
2022-10-17T03:39:27.583Z,3.33
2022-10-17T03:41:00.872Z,3.35
2022-10-17T03:42:34.284Z,3.37
2022-10-17T03:44:07.728Z,3.37
2022-10-17T03:45:40.883Z,3.35
2022-10-17T03:47:14.399Z,3.32
2022-10-17T03:48:48.220Z,3.30
2022-10-17T03:50:22.888Z,3.24
2022-10-17T03:51:56.279Z,3.28
2022-10-17T03:53:35.225Z,3.23
2022-10-17T03:55:09.269Z,3.30
2022-10-17T03:56:43.601Z,3.28
2022-10-17T03:58:19.992Z,3.29
2022-10-17T03:59:53.307Z,3.30
2022-10-17T04:01:27.876Z,3.24
2022-10-17T04:03:01.954Z,3.26
2022-10-17T04:04:35.143Z,3.27
2022-10-17T04:06:13.356Z,3.29
2022-10-17T04:07:49.629Z,3.27
2022-10-17T04:09:27.109Z,3.33
2022-10-17T04:11:08.886Z,3.33
2022-10-17T04:12:42.169Z,3.33
2022-10-17T04:14:16.097Z,3.29
2022-10-17T04:15:56.322Z,3.28
2022-10-17T04:17:35.907Z,3.25
2022-10-17T04:19:14.507Z,3.16
2022-10-17T04:20:51.948Z,3.13
2022-10-17T04:22:26.255Z,3.09
2022-10-17T04:24:01.659Z,3.04
2022-10-17T04:25:52.073Z,2.97
2022-10-17T04:27:25.279Z,2.98
2022-10-17T04:28:58.689Z,2.93
2022-10-17T04:30:31.971Z,2.96
2022-10-17T04:32:04.565Z,2.97
2022-10-17T04:33:44.767Z,2.97
2022-10-17T04:35:18.227Z,2.96
2022-10-17T04:36:56.526Z,2.96
2022-10-17T04:38:30.955Z,2.93
2022-10-17T04:40:04.455Z,2.95
2022-10-17T04:41:40.785Z,2.94
2022-10-17T04:43:14.056Z,2.92
2022-10-17T04:44:47.543Z,2.91
2022-10-17T04:46:23.033Z,2.93
2022-10-17T04:47:56.372Z,2.93
2022-10-17T04:49:29.617Z,2.96
2022-10-17T04:51:12.117Z,2.96
2022-10-17T04:52:58.245Z,2.95
2022-10-17T04:54:31.520Z,2.88
2022-10-17T04:56:14.868Z,2.80
2022-10-17T04:57:49.425Z,2.73
2022-10-17T04:59:27.328Z,2.71
2022-10-17T05:01:13.401Z,2.53
2022-10-17T05:02:48.528Z,2.61
2022-10-17T05:04:24.762Z,2.60
2022-10-17T05:05:58.179Z,2.66
2022-10-17T05:07:31.491Z,2.78
2022-10-17T05:09:10.014Z,2.85
2022-10-17T05:10:46.227Z,2.91
2022-10-17T05:12:20.348Z,2.96
2022-10-17T05:13:57.865Z,3.11
2022-10-17T05:15:31.344Z,3.28
2022-10-17T05:17:04.617Z,3.39
2022-10-17T05:18:38.029Z,3.54
2022-10-17T05:20:12.392Z,3.67
2022-10-17T05:21:46.485Z,3.83
2022-10-17T05:23:19.702Z,3.96
2022-10-17T05:24:53.049Z,4.06
2022-10-17T05:26:26.758Z,4.21
2022-10-17T05:28:00.110Z,4.30
2022-10-17T05:29:35.746Z,4.35
2022-10-17T05:31:24.850Z,4.35
2022-10-17T05:32:58.069Z,4.37
2022-10-17T05:34:31.362Z,4.41
2022-10-17T05:36:05.559Z,4.43
2022-10-17T05:37:41.964Z,4.54
2022-10-17T05:39:19.612Z,4.61
2022-10-17T05:40:58.558Z,4.64
2022-10-17T05:42:32.883Z,4.77
2022-10-17T05:44:06.831Z,4.85
2022-10-17T05:45:51.050Z,4.97
2022-10-17T05:47:27.083Z,5.08
2022-10-17T05:49:00.391Z,5.17
2022-10-17T05:50:33.691Z,5.29
2022-10-17T05:52:22.090Z,5.46
2022-10-17T05:54:10.309Z,5.68
2022-10-17T05:55:43.721Z,5.93
2022-10-17T05:57:16.918Z,6.17
2022-10-17T05:58:53.231Z,6.47
2022-10-17T06:00:48.519Z,6.77
2022-10-17T06:02:23.853Z,7.11
2022-10-17T06:03:57.104Z,7.42
2022-10-17T06:05:30.826Z,7.55
2022-10-17T06:07:04.953Z,7.65
2022-10-17T06:08:39.958Z,7.84
2022-10-17T06:10:16.626Z,8.05
2022-10-17T06:11:50.191Z,8.08
2022-10-17T06:13:23.747Z,8.25
2022-10-17T06:14:58.974Z,8.47
2022-10-17T06:16:32.873Z,8.82
2022-10-17T06:18:07.484Z,9.20
2022-10-17T06:19:41.572Z,9.50
2022-10-17T06:21:18.276Z,9.58
2022-10-17T06:22:53.586Z,9.56
2022-10-17T06:24:39.757Z,10.02
2022-10-17T06:26:13.198Z,10.29
2022-10-17T06:27:46.904Z,10.63
2022-10-17T06:29:20.526Z,11.03
2022-10-17T06:30:57.305Z,11.38
2022-10-17T06:32:30.819Z,11.61
2022-10-17T06:34:05.810Z,11.80
2022-10-17T06:35:39.022Z,12.03
2022-10-17T06:37:12.274Z,12.12
2022-10-17T06:38:47.506Z,12.31
2022-10-17T06:40:27.580Z,12.63
2022-10-17T06:42:01.326Z,12.79
2022-10-17T06:44:12.241Z,13.04
2022-10-17T06:46:03.743Z,13.23
2022-10-17T06:47:45.036Z,13.37
2022-10-17T06:49:42.990Z,13.53
2022-10-17T06:51:45.635Z,13.44
2022-10-17T06:53:22.034Z,13.50
2022-10-17T06:55:19.653Z,13.84
2022-10-17T06:57:05.002Z,13.85
2022-10-17T06:58:56.795Z,13.98
2022-10-17T07:00:33.226Z,14.01
2022-10-17T07:02:06.817Z,14.17
2022-10-17T07:03:40.980Z,14.43
2022-10-17T07:05:15.663Z,14.62
2022-10-17T07:06:49.244Z,14.88
2022-10-17T07:08:26.560Z,14.99
2022-10-17T07:09:59.910Z,15.03
2022-10-17T07:11:33.837Z,15.25
2022-10-17T07:13:07.059Z,15.38
2022-10-17T07:14:42.208Z,15.43
2022-10-17T07:16:16.910Z,15.50
2022-10-17T07:17:52.940Z,15.73
2022-10-17T07:19:27.041Z,15.93
2022-10-17T07:21:01.809Z,15.85
2022-10-17T07:22:35.589Z,15.96
2022-10-17T07:24:08.850Z,16.20
2022-10-17T07:25:42.449Z,16.42
2022-10-17T07:27:16.680Z,16.58
2022-10-17T07:28:53.791Z,16.53
2022-10-17T07:30:49.307Z,16.72
2022-10-17T07:32:24.034Z,16.47
2022-10-17T07:34:00.317Z,16.37
2022-10-17T07:35:34.213Z,16.46
2022-10-17T07:37:10.115Z,16.64
2022-10-17T07:38:45.484Z,16.77
2022-10-17T07:40:18.768Z,17.00
2022-10-17T07:41:51.989Z,16.94
2022-10-17T07:43:26.040Z,16.99
2022-10-17T07:45:00.621Z,17.17
2022-10-17T07:46:35.122Z,16.92
2022-10-17T07:48:08.389Z,16.49
2022-10-17T07:49:43.857Z,16.61
2022-10-17T07:51:18.486Z,16.96
2022-10-17T07:52:53.053Z,17.34
2022-10-17T07:54:26.509Z,17.51
2022-10-17T07:56:00.117Z,17.69
2022-10-17T07:57:33.294Z,17.80
2022-10-17T07:59:09.173Z,17.91
2022-10-17T08:00:43.006Z,18.05
2022-10-17T08:02:22.807Z,18.18
2022-10-17T08:03:55.985Z,18.40
2022-10-17T08:05:29.895Z,18.13
2022-10-17T08:07:18.257Z,17.56
2022-10-17T08:08:54.765Z,17.56
2022-10-17T08:10:29.738Z,17.53
2022-10-17T08:12:03.038Z,17.89
2022-10-17T08:13:37.140Z,18.08
2022-10-17T08:15:11.559Z,18.34
2022-10-17T08:16:45.030Z,18.61
2022-10-17T08:18:18.860Z,18.84
2022-10-17T08:19:52.056Z,19.02
2022-10-17T08:21:25.359Z,19.04
2022-10-17T08:22:58.539Z,19.11
2022-10-17T08:24:33.428Z,19.18
2022-10-17T08:26:10.690Z,19.31
2022-10-17T08:27:44.201Z,19.44
2022-10-17T08:29:18.135Z,19.66
2022-10-17T08:30:51.594Z,19.55
2022-10-17T08:32:28.356Z,19.15
2022-10-17T08:34:01.811Z,18.86
2022-10-17T08:35:35.172Z,19.17
2022-10-17T08:37:08.534Z,19.34
2022-10-17T08:38:43.651Z,19.55
2022-10-17T08:40:23.790Z,19.37
2022-10-17T08:42:14.727Z,19.60
2022-10-17T08:44:00.988Z,19.46
2022-10-17T08:45:37.864Z,19.71
2022-10-17T08:47:14.876Z,19.79
2022-10-17T08:48:51.015Z,20.02
2022-10-17T08:50:32.214Z,19.88
2022-10-17T08:52:11.828Z,19.37
2022-10-17T08:53:50.814Z,18.58
2022-10-17T08:55:32.043Z,18.18
2022-10-17T08:57:05.439Z,18.04
2022-10-17T08:58:39.164Z,17.73
2022-10-17T09:00:18.602Z,17.52
2022-10-17T09:01:57.786Z,17.42
2022-10-17T09:03:46.096Z,17.23
2022-10-17T09:05:34.472Z,17.01
2022-10-17T09:07:22.901Z,16.96
2022-10-17T09:09:08.278Z,17.00
2022-10-17T09:10:53.825Z,16.97
2022-10-17T09:12:37.607Z,16.83
2022-10-17T09:14:30.696Z,16.88
2022-10-17T09:16:19.375Z,16.88
2022-10-17T09:17:58.157Z,16.84
2022-10-17T09:19:36.012Z,16.78
2022-10-17T09:21:20.756Z,16.70
2022-10-17T09:22:59.716Z,16.64
2022-10-17T09:24:41.417Z,16.63
2022-10-17T09:26:16.731Z,16.63
2022-10-17T09:27:52.782Z,16.71
2022-10-17T09:29:34.182Z,16.74
2022-10-17T09:31:15.773Z,16.81
2022-10-17T09:32:49.238Z,16.91
2022-10-17T09:34:26.704Z,16.98
2022-10-17T09:36:01.586Z,17.15
2022-10-17T09:37:34.945Z,17.28
2022-10-17T09:39:14.377Z,17.37
2022-10-17T09:40:56.877Z,17.38
2022-10-17T09:42:32.563Z,17.42
2022-10-17T09:44:17.605Z,17.43
2022-10-17T09:46:09.426Z,17.55
2022-10-17T09:47:47.115Z,17.72
2022-10-17T09:49:27.357Z,17.79
2022-10-17T09:51:14.713Z,17.96
2022-10-17T09:52:50.835Z,18.14
2022-10-17T09:54:28.067Z,18.25
2022-10-17T09:56:09.054Z,18.26
2022-10-17T09:57:59.812Z,18.37
2022-10-17T09:59:36.029Z,18.48
2022-10-17T10:01:23.988Z,18.54
2022-10-17T10:03:15.842Z,18.56
2022-10-17T10:05:05.912Z,18.56
2022-10-17T10:06:41.102Z,18.53
2022-10-17T10:08:17.294Z,18.39
2022-10-17T10:09:51.699Z,18.16
2022-10-17T10:11:27.201Z,18.16
2022-10-17T10:13:08.076Z,18.14
2022-10-17T10:14:43.414Z,18.30
2022-10-17T10:16:25.493Z,18.36
2022-10-17T10:17:58.675Z,18.36
2022-10-17T10:19:34.218Z,18.43
2022-10-17T10:21:10.756Z,18.39
2022-10-17T10:22:43.897Z,18.41
2022-10-17T10:24:17.115Z,18.45
2022-10-17T10:25:58.799Z,18.54
2022-10-17T10:29:21.035Z,18.54
2022-10-17T10:32:49.411Z,18.49
2022-10-17T10:34:25.887Z,18.44
2022-10-17T10:36:02.170Z,18.54
2022-10-17T10:37:39.838Z,18.53
2022-10-17T10:39:27.256Z,18.53
2022-10-17T10:41:05.512Z,18.59
2022-10-17T10:42:40.624Z,18.64
2022-10-17T10:44:18.959Z,18.63
2022-10-17T10:45:53.461Z,18.61
2022-10-17T10:47:29.440Z,18.67
2022-10-17T10:49:03.348Z,18.77
2022-10-17T10:50:45.137Z,18.87
2022-10-17T10:52:31.362Z,18.97
2022-10-17T10:54:12.559Z,19.06
2022-10-17T10:55:50.175Z,18.94
2022-10-17T10:57:29.004Z,18.92
2022-10-17T10:59:06.182Z,18.97
2022-10-17T11:00:41.025Z,19.02
2022-10-17T11:02:20.078Z,19.07
2022-10-17T11:04:09.429Z,19.16
2022-10-17T11:05:49.190Z,19.28
2022-10-17T11:07:27.464Z,19.40
2022-10-17T11:09:14.986Z,19.46
2022-10-17T11:11:00.580Z,19.39
2022-10-17T11:12:37.995Z,19.35
2022-10-17T11:14:16.538Z,19.29
2022-10-17T11:15:58.782Z,19.35
2022-10-17T11:17:36.965Z,19.33
2022-10-17T11:19:16.098Z,19.33
2022-10-17T11:20:55.619Z,19.34
2022-10-17T11:22:33.202Z,19.39
2022-10-17T11:24:13.769Z,19.43
2022-10-17T11:25:48.531Z,19.34
2022-10-17T11:27:21.778Z,19.28
2022-10-17T11:28:55.527Z,19.27
2022-10-17T11:30:35.978Z,19.25
2022-10-17T11:32:16.496Z,19.25
2022-10-17T11:33:53.475Z,19.30
2022-10-17T11:35:29.868Z,19.33
2022-10-17T11:37:09.226Z,19.37
2022-10-17T11:38:47.306Z,19.35
2022-10-17T11:40:27.765Z,19.37
2022-10-17T11:42:07.806Z,19.42
2022-10-17T11:43:47.381Z,19.44
2022-10-17T11:45:23.558Z,19.42
2022-10-17T11:47:01.429Z,19.48
2022-10-17T11:48:42.328Z,19.56
2022-10-17T11:52:51.719Z,19.58
2022-10-17T11:54:31.324Z,19.62
2022-10-17T11:56:04.705Z,19.65
2022-10-17T11:57:47.698Z,19.63
2022-10-17T11:59:47.130Z,19.68
2022-10-17T12:01:28.900Z,19.71
2022-10-17T12:03:13.231Z,19.63
2022-10-17T12:05:01.870Z,19.61
2022-10-17T12:06:51.201Z,19.65
2022-10-17T12:08:31.262Z,19.64
2022-10-17T12:10:30.088Z,19.64
2022-10-17T12:12:05.226Z,19.58
2022-10-17T12:13:53.502Z,19.62
2022-10-17T12:15:31.959Z,19.64
2022-10-17T12:17:07.081Z,19.71
2022-10-17T12:18:40.412Z,19.74
2022-10-17T12:20:41.949Z,19.72
2022-10-17T12:22:26.047Z,19.70
2022-10-17T12:23:59.695Z,19.70
2022-10-17T12:25:35.472Z,19.68
2022-10-17T12:27:36.270Z,19.68
2022-10-17T12:29:27.830Z,19.70
2022-10-17T12:31:05.799Z,19.71
2022-10-17T12:33:00.574Z,19.77
2022-10-17T12:34:32.909Z,19.77
2022-10-17T12:36:48.301Z,19.82
2022-10-17T12:38:29.215Z,19.87
2022-10-17T12:40:02.456Z,19.91
2022-10-17T12:41:56.123Z,19.95
2022-10-17T12:43:56.367Z,19.96
2022-10-17T12:45:52.600Z,19.96
2022-10-17T12:47:38.151Z,19.95
2022-10-17T12:49:40.326Z,19.95
2022-10-17T12:51:34.751Z,19.90
2022-10-17T12:53:16.983Z,19.91
2022-10-17T12:55:10.961Z,19.93
2022-10-17T12:56:47.992Z,19.95
2022-10-17T12:58:21.146Z,19.92
2022-10-17T12:59:57.966Z,19.91
2022-10-17T13:01:35.220Z,19.89
2022-10-17T13:03:15.308Z,19.92
2022-10-17T13:04:49.333Z,19.95
2022-10-17T13:06:25.921Z,19.90
2022-10-17T13:08:02.139Z,19.89
2022-10-17T13:09:39.787Z,19.93
2022-10-17T13:11:15.448Z,19.97
2022-10-17T13:12:49.846Z,20.02
2022-10-17T13:14:24.666Z,20.04
2022-10-17T13:15:57.887Z,20.09
2022-10-17T13:17:31.772Z,20.07
2022-10-17T13:19:13.478Z,20.11
2022-10-17T13:20:56.985Z,20.03
2022-10-17T13:22:32.895Z,20.11
2022-10-17T13:24:21.476Z,20.03
2022-10-17T13:26:20.562Z,20.08
2022-10-17T13:28:05.835Z,20.12
2022-10-17T13:29:45.870Z,20.13
2022-10-17T13:31:31.353Z,20.10
2022-10-17T13:33:05.066Z,20.03
2022-10-17T13:34:38.811Z,20.06
2022-10-17T13:36:18.981Z,20.06
2022-10-17T13:37:54.182Z,20.12
2022-10-17T13:39:52.508Z,20.14
2022-10-17T13:41:37.195Z,20.17
2022-10-17T13:43:17.046Z,20.11
2022-10-17T13:44:50.660Z,20.04
2022-10-17T13:46:37.206Z,20.04
2022-10-17T13:48:23.977Z,20.08
2022-10-17T13:49:59.047Z,20.12
2022-10-17T13:51:32.595Z,20.15
2022-10-17T13:53:16.806Z,20.17
2022-10-17T13:54:53.778Z,20.16
2022-10-17T13:56:31.020Z,20.18
2022-10-17T13:58:15.753Z,20.14
2022-10-17T13:59:51.554Z,20.15
2022-10-17T14:01:26.848Z,20.13
2022-10-17T14:03:00.026Z,20.10
2022-10-17T14:04:56.642Z,20.12
2022-10-17T14:06:28.249Z,20.13
2022-10-17T14:08:14.241Z,20.11
2022-10-17T14:09:50.457Z,20.08
2022-10-17T14:11:33.768Z,20.06
2022-10-17T14:13:08.726Z,20.03
2022-10-17T14:15:09.425Z,20.04
2022-10-17T14:16:43.925Z,20.02
2022-10-17T14:18:22.000Z,19.98
2022-10-17T14:20:14.072Z,19.95
2022-10-17T14:21:54.456Z,19.92
2022-10-17T14:23:34.005Z,19.91
2022-10-17T14:25:07.796Z,19.87
2022-10-17T14:26:50.311Z,19.80
2022-10-17T14:28:24.256Z,19.75
2022-10-17T14:30:00.835Z,19.74
2022-10-17T14:31:36.335Z,19.66
2022-10-17T14:33:15.321Z,19.65
2022-10-17T14:35:01.415Z,19.62
2022-10-17T14:36:44.067Z,19.59
2022-10-17T14:38:19.198Z,19.57
2022-10-17T14:39:55.138Z,19.52
2022-10-17T14:41:42.281Z,19.48
2022-10-17T14:43:23.851Z,19.43
2022-10-17T14:45:06.456Z,19.41
2022-10-17T14:46:50.471Z,19.38
2022-10-17T14:48:26.144Z,19.30
2022-10-17T14:50:08.522Z,19.29
2022-10-17T14:51:56.514Z,19.26
2022-10-17T14:53:35.386Z,19.19
2022-10-17T14:55:23.756Z,19.15
2022-10-17T14:56:56.923Z,19.09
2022-10-17T14:58:33.775Z,19.02
2022-10-17T15:00:08.151Z,18.95
2022-10-17T15:01:41.576Z,18.89
2022-10-17T15:03:14.833Z,18.84
2022-10-17T15:04:48.035Z,18.81
2022-10-17T15:06:21.718Z,18.74
2022-10-17T15:07:55.121Z,18.69
2022-10-17T15:09:29.040Z,18.63
2022-10-17T15:11:02.291Z,18.56
2022-10-17T15:12:35.664Z,18.48
2022-10-17T15:14:10.303Z,18.42
2022-10-17T15:15:44.513Z,18.36
2022-10-17T15:17:20.829Z,18.31
2022-10-17T15:18:55.020Z,18.26
2022-10-17T15:20:30.458Z,18.19
2022-10-17T15:22:03.826Z,18.11
2022-10-17T15:23:37.068Z,18.05
2022-10-17T15:25:10.865Z,17.98
2022-10-17T15:26:44.198Z,17.93
2022-10-17T15:28:17.392Z,17.87
2022-10-17T15:29:53.115Z,17.77
2022-10-17T15:31:27.690Z,17.70
2022-10-17T15:33:01.172Z,17.57
2022-10-17T15:34:34.471Z,17.56
2022-10-17T15:36:19.698Z,17.51
2022-10-17T15:37:53.334Z,17.42
2022-10-17T15:39:26.803Z,17.37
2022-10-17T15:40:59.900Z,17.30
2022-10-17T15:42:33.202Z,17.23
2022-10-17T15:44:06.779Z,17.17
2022-10-17T15:45:41.328Z,17.11
2022-10-17T15:47:23.605Z,17.02
2022-10-17T15:48:57.831Z,16.94
2022-10-17T15:50:31.220Z,16.89
2022-10-17T15:52:05.789Z,16.82
2022-10-17T15:53:38.975Z,16.70
2022-10-17T15:55:12.569Z,16.63
2022-10-17T15:56:53.782Z,16.53
2022-10-17T15:58:28.455Z,16.42
2022-10-17T16:00:01.946Z,16.39
2022-10-17T16:01:44.104Z,16.32
2022-10-17T16:03:17.286Z,16.28
2022-10-17T16:04:51.970Z,16.22
2022-10-17T16:06:26.087Z,16.14
2022-10-17T16:07:59.389Z,16.12
2022-10-17T16:09:33.486Z,16.07
2022-10-17T16:11:06.974Z,16.02
2022-10-17T16:12:41.383Z,15.99
2022-10-17T16:14:16.501Z,15.99
2022-10-17T16:15:49.884Z,15.96
2022-10-17T16:17:24.479Z,15.92
2022-10-17T16:18:57.613Z,15.85
2022-10-17T16:20:31.829Z,15.78
2022-10-17T16:22:06.387Z,15.71
2022-10-17T16:23:39.581Z,15.65
2022-10-17T16:25:20.150Z,15.62
2022-10-17T16:26:53.425Z,15.57
2022-10-17T16:28:26.790Z,15.52
2022-10-17T16:30:00.013Z,15.47
2022-10-17T16:31:36.048Z,15.43
2022-10-17T16:33:11.042Z,15.39
2022-10-17T16:34:44.351Z,15.30
2022-10-17T16:36:17.739Z,15.18
2022-10-17T16:37:51.273Z,15.15
2022-10-17T16:39:24.574Z,15.09
2022-10-17T16:40:58.094Z,14.99
2022-10-17T16:42:31.784Z,14.81
2022-10-17T16:44:06.902Z,14.67
2022-10-17T16:45:41.324Z,14.53
2022-10-17T16:47:14.712Z,14.40
2022-10-17T16:48:49.836Z,14.26
2022-10-17T16:50:23.115Z,14.16
2022-10-17T16:51:56.462Z,14.08
2022-10-17T16:53:29.998Z,13.99
2022-10-17T16:55:03.350Z,13.94
2022-10-17T16:56:36.549Z,13.95
2022-10-17T16:58:09.846Z,13.90
2022-10-17T16:59:43.143Z,13.88
2022-10-17T17:01:18.508Z,13.86
2022-10-17T17:02:51.754Z,13.84
2022-10-17T17:04:26.665Z,13.77
2022-10-17T17:05:59.916Z,13.66
2022-10-17T17:07:33.803Z,13.69
2022-10-17T17:09:08.688Z,13.64
2022-10-17T17:10:45.914Z,13.64
2022-10-17T17:12:19.287Z,13.64
2022-10-17T17:13:53.068Z,13.57
2022-10-17T17:15:26.269Z,13.49
2022-10-17T17:16:59.582Z,13.41
2022-10-17T17:18:32.962Z,13.32
2022-10-17T17:20:08.434Z,13.14
2022-10-17T17:21:43.222Z,13.17
2022-10-17T17:23:16.514Z,13.13
2022-10-17T17:26:29.891Z,13.04
2022-10-17T17:28:03.650Z,12.97
2022-10-17T17:29:36.979Z,12.90
2022-10-17T17:31:12.737Z,12.84
2022-10-17T17:32:45.965Z,12.77
2022-10-17T17:34:19.114Z,12.74
2022-10-17T17:35:57.509Z,12.72
2022-10-17T17:37:31.101Z,12.69
2022-10-17T17:39:06.848Z,12.61
2022-10-17T17:40:50.370Z,12.50
2022-10-17T17:42:24.401Z,12.50
2022-10-17T17:43:58.204Z,12.48
2022-10-17T17:45:31.399Z,12.43
2022-10-17T17:47:04.567Z,12.29
2022-10-17T17:48:39.090Z,12.37
2022-10-17T17:50:12.351Z,12.32
2022-10-17T17:51:47.445Z,12.29
2022-10-17T17:53:21.993Z,12.24
2022-10-17T17:54:55.226Z,12.13
2022-10-17T17:56:29.913Z,12.06
2022-10-17T17:58:03.400Z,11.94
2022-10-17T17:59:36.695Z,11.95
2022-10-17T18:01:14.306Z,11.92
2022-10-17T18:02:48.827Z,11.88
2022-10-17T18:04:22.004Z,11.82
2022-10-17T18:05:55.506Z,11.70
2022-10-17T18:07:30.506Z,11.58
2022-10-17T18:09:13.561Z,11.50
2022-10-17T18:10:49.675Z,11.32
2022-10-17T18:12:22.828Z,11.15
2022-10-17T18:13:56.829Z,11.12
2022-10-17T18:15:30.313Z,10.98
2022-10-17T18:17:03.514Z,10.89
2022-10-17T18:18:37.663Z,10.86
2022-10-17T18:20:11.827Z,10.81
2022-10-17T18:21:45.692Z,10.71
2022-10-17T18:23:20.246Z,10.77
2022-10-17T18:24:53.373Z,10.64
2022-10-17T18:26:26.728Z,10.61
2022-10-17T18:28:02.077Z,10.63
2022-10-17T18:29:35.305Z,10.56
2022-10-17T18:31:10.745Z,10.55
2022-10-17T18:32:43.944Z,10.58
2022-10-17T18:34:17.336Z,10.54
2022-10-17T18:35:50.569Z,10.52
2022-10-17T18:37:23.725Z,10.51
2022-10-17T18:39:00.038Z,10.50
2022-10-17T18:40:33.605Z,10.41
2022-10-17T18:42:06.786Z,10.47
2022-10-17T18:43:41.151Z,10.48
2022-10-17T18:45:14.508Z,10.47
2022-10-17T18:46:48.155Z,10.44
2022-10-17T18:48:21.336Z,10.37
2022-10-17T18:49:54.453Z,10.34
2022-10-17T18:51:28.214Z,10.30
2022-10-17T18:53:02.251Z,10.27
2022-10-17T18:54:36.932Z,10.24
2022-10-17T18:56:10.992Z,10.20
2022-10-17T18:57:44.480Z,10.17
2022-10-17T18:59:18.360Z,10.15
2022-10-17T19:00:52.297Z,10.11
2022-10-17T19:02:25.475Z,10.08
2022-10-17T19:04:00.548Z,10.07
2022-10-17T19:05:35.228Z,10.06
2022-10-17T19:07:08.447Z,10.07
2022-10-17T19:08:41.991Z,10.06
2022-10-17T19:10:16.808Z,10.04
2022-10-17T19:11:50.243Z,10.04
2022-10-17T19:13:23.609Z,10.02
2022-10-17T19:14:57.419Z,9.97
2022-10-17T19:16:32.448Z,9.96
2022-10-17T19:18:06.233Z,9.94
2022-10-17T19:19:39.575Z,9.93
2022-10-17T19:21:14.575Z,9.86
2022-10-17T19:22:50.421Z,9.83
2022-10-17T19:24:26.370Z,9.79
2022-10-17T19:26:05.608Z,9.70
2022-10-17T19:27:38.987Z,9.67
2022-10-17T19:29:15.150Z,9.67
2022-10-17T19:30:48.579Z,9.63
2022-10-17T19:32:28.068Z,9.61
2022-10-17T19:34:01.940Z,9.56
2022-10-17T19:35:35.446Z,9.55
2022-10-17T19:37:09.151Z,9.53
2022-10-17T19:38:42.984Z,9.51
2022-10-17T19:40:16.391Z,9.49
2022-10-17T19:41:51.016Z,9.47
2022-10-17T19:43:24.748Z,9.43
2022-10-17T19:44:57.946Z,9.35
2022-10-17T19:46:32.159Z,9.21
2022-10-17T19:48:06.053Z,8.93
2022-10-17T19:49:40.348Z,8.76
2022-10-17T19:51:15.240Z,8.51
2022-10-17T19:52:49.201Z,8.40
2022-10-17T19:54:22.497Z,8.35
2022-10-17T19:55:55.824Z,8.30
2022-10-17T19:57:30.483Z,8.24
2022-10-17T19:59:03.978Z,8.11
2022-10-17T20:00:37.350Z,8.17
2022-10-17T20:02:13.044Z,8.17
2022-10-17T20:03:46.575Z,8.18
2022-10-17T20:05:21.634Z,8.21
2022-10-17T20:06:59.884Z,8.23
2022-10-17T20:08:33.282Z,8.22
2022-10-17T20:10:07.726Z,8.21
2022-10-17T20:11:40.876Z,8.22
2022-10-17T20:13:15.920Z,8.18
2022-10-17T20:14:49.303Z,8.13
2022-10-17T20:16:24.682Z,8.13
2022-10-17T20:17:58.051Z,8.08
2022-10-17T20:19:31.281Z,8.11
2022-10-17T20:21:06.507Z,8.07
2022-10-17T20:22:39.702Z,8.06
2022-10-17T20:24:16.528Z,8.05
2022-10-17T20:26:01.070Z,8.03
2022-10-17T20:27:43.364Z,7.96
2022-10-17T20:29:19.958Z,7.95
2022-10-17T20:30:53.104Z,7.92
2022-10-17T20:32:26.281Z,7.89
2022-10-17T20:34:00.768Z,7.80
2022-10-17T20:35:34.003Z,7.79
2022-10-17T20:37:07.159Z,7.80
2022-10-17T20:38:40.417Z,7.81
2022-10-17T20:40:34.265Z,7.84
2022-10-17T20:42:07.272Z,7.91
2022-10-17T20:43:40.372Z,7.93
2022-10-17T20:45:15.124Z,7.96
2022-10-17T20:47:01.169Z,7.98
2022-10-17T20:48:35.594Z,8.00
2022-10-17T20:50:09.573Z,8.02
2022-10-17T20:51:43.268Z,7.99
2022-10-17T20:53:36.200Z,7.85
2022-10-17T20:55:10.289Z,7.72
2022-10-17T20:56:43.722Z,7.65
2022-10-17T20:58:16.969Z,7.57
2022-10-17T20:59:50.176Z,7.48
2022-10-17T21:01:25.920Z,7.41
2022-10-17T21:02:59.416Z,7.39
2022-10-17T21:04:45.873Z,7.39
2022-10-17T21:06:21.113Z,7.36
2022-10-17T21:07:54.257Z,7.41
2022-10-17T21:09:27.717Z,7.34
2022-10-17T21:11:09.506Z,7.31
2022-10-17T21:12:53.358Z,7.27
2022-10-17T21:14:27.105Z,7.26
2022-10-17T21:16:06.217Z,7.23
2022-10-17T21:17:40.858Z,7.29
2022-10-17T21:19:14.394Z,7.24
2022-10-17T21:20:47.575Z,7.08